createdAt,value
2018-03-11T00:01:27.693Z,99.99
2018-03-11T00:02:27.648Z,99.99
2018-03-11T00:04:20.646Z,99.99
2018-03-11T00:05:20.615Z,99.99
2018-03-11T00:07:14.002Z,99.99
2018-03-11T00:08:14.560Z,99.99
2018-03-11T00:10:07.400Z,99.99
2018-03-11T00:11:07.339Z,99.99
2018-03-11T00:13:00.752Z,99.99
2018-03-11T00:14:00.721Z,99.99
2018-03-11T00:15:53.592Z,99.99
2018-03-11T00:16:53.586Z,99.99
2018-03-11T00:18:46.948Z,99.99
2018-03-11T00:19:46.913Z,99.99
2018-03-11T00:21:40.307Z,99.99
2018-03-11T00:22:40.274Z,99.99
2018-03-11T00:24:33.169Z,99.99
2018-03-11T00:25:33.156Z,99.99
2018-03-11T00:27:26.641Z,99.99
2018-03-11T00:28:26.029Z,99.99
2018-03-11T00:30:19.522Z,99.99
2018-03-11T00:31:19.385Z,99.99
2018-03-11T00:33:12.283Z,99.99
2018-03-11T00:34:12.306Z,99.99
2018-03-11T00:36:05.628Z,99.99
2018-03-11T00:37:05.600Z,99.99
2018-03-11T00:38:58.498Z,99.99
2018-03-11T00:39:58.486Z,99.99
2018-03-11T00:41:53.031Z,99.99
2018-03-11T00:42:52.834Z,99.99
2018-03-11T00:44:46.313Z,99.99
2018-03-11T00:45:46.197Z,99.99
2018-03-11T00:47:39.607Z,99.99
2018-03-11T00:48:39.551Z,99.99
2018-03-11T00:50:32.510Z,99.99
2018-03-11T00:51:32.411Z,99.99
2018-03-11T00:53:25.966Z,99.99
2018-03-11T00:54:25.276Z,99.99
2018-03-11T00:56:18.756Z,99.99
2018-03-11T00:57:18.145Z,99.99
2018-03-11T00:59:14.160Z,99.99
2018-03-11T01:00:11.515Z,99.99
2018-03-11T01:02:04.517Z,99.99
2018-03-11T01:03:04.364Z,99.99
2018-03-11T01:04:57.430Z,99.99
2018-03-11T01:05:57.232Z,99.99
2018-03-11T01:07:50.673Z,99.99
2018-03-11T01:08:50.584Z,99.99
2018-03-11T01:10:44.555Z,99.99
2018-03-11T01:11:43.988Z,99.99
2018-03-11T01:13:36.893Z,99.99
2018-03-11T01:14:36.855Z,99.99
2018-03-11T01:16:31.307Z,99.99
2018-03-11T01:17:29.723Z,99.99
2018-03-11T01:19:23.179Z,99.99
2018-03-11T01:20:23.089Z,99.99
2018-03-11T01:22:16.496Z,99.99
2018-03-11T01:23:16.442Z,99.99
2018-03-11T01:25:10.545Z,99.99
2018-03-11T01:26:09.869Z,99.99
2018-03-11T01:28:04.266Z,99.99
2018-03-11T01:29:04.180Z,99.99
2018-03-11T01:30:57.069Z,99.99
2018-03-11T01:31:57.073Z,99.99
2018-03-11T01:33:49.987Z,99.99
2018-03-11T01:34:49.911Z,99.99
2018-03-11T01:36:44.850Z,99.99
2018-03-11T01:37:43.853Z,99.99
2018-03-11T01:39:37.652Z,99.99
2018-03-11T01:40:37.620Z,99.99
2018-03-11T01:42:30.577Z,99.99
2018-03-11T01:43:30.533Z,99.99
2018-03-11T01:45:24.493Z,99.99
2018-03-11T01:46:24.458Z,99.99
2018-03-11T01:48:18.057Z,99.99
2018-03-11T01:49:17.838Z,99.99
2018-03-11T01:51:10.707Z,99.99
2018-03-11T01:52:10.700Z,99.99
2018-03-11T01:54:04.152Z,99.99
2018-03-11T01:55:03.544Z,99.99
2018-03-11T01:56:56.541Z,99.99
2018-03-11T01:57:56.412Z,99.99
2018-03-11T01:59:49.805Z,99.99
2018-03-11T02:00:49.788Z,99.99
2018-03-11T02:02:42.688Z,99.99
2018-03-11T02:03:42.643Z,99.99
2018-03-11T02:05:36.025Z,99.99
2018-03-11T02:06:35.998Z,99.99
2018-03-11T02:08:29.379Z,99.99
2018-03-11T02:09:29.358Z,99.99
2018-03-11T02:11:22.285Z,99.99
2018-03-11T02:12:22.226Z,99.99
2018-03-11T02:14:15.110Z,99.99
2018-03-11T02:15:15.086Z,99.99
2018-03-11T02:17:08.014Z,99.99
2018-03-11T02:18:07.966Z,99.99
2018-03-11T02:20:00.821Z,99.99
2018-03-11T02:21:00.803Z,99.99
2018-03-11T02:22:54.249Z,99.99
2018-03-11T02:23:54.156Z,99.99
2018-03-11T02:25:47.536Z,99.99
2018-03-11T02:26:47.514Z,99.99
2018-03-11T02:28:40.981Z,99.99
2018-03-11T02:29:40.876Z,99.99
2018-03-11T02:31:34.275Z,99.99
2018-03-11T02:32:34.230Z,99.99
2018-03-11T02:34:27.122Z,99.99
2018-03-11T02:35:27.101Z,99.99
2018-03-11T02:37:19.995Z,99.99
2018-03-11T02:38:19.989Z,99.99
2018-03-11T02:40:12.874Z,99.99
2018-03-11T02:41:12.826Z,99.99
2018-03-11T02:43:05.742Z,99.99
2018-03-11T02:44:05.702Z,99.99
2018-03-11T02:45:58.599Z,99.99
2018-03-11T02:46:58.607Z,99.99
2018-03-11T02:48:51.932Z,99.99
2018-03-11T02:49:51.904Z,99.99
2018-03-11T02:51:44.796Z,99.99
2018-03-11T02:52:44.765Z,99.99
2018-03-11T02:54:37.680Z,99.99
2018-03-11T02:55:37.639Z,99.99
2018-03-11T02:57:30.531Z,99.99
2018-03-11T02:58:30.517Z,99.99
2018-03-11T03:00:24.100Z,99.99
2018-03-11T03:01:23.858Z,99.99
2018-03-11T03:03:17.267Z,99.99
2018-03-11T03:04:17.218Z,99.99
2018-03-11T03:06:10.236Z,99.99
2018-03-11T03:07:10.069Z,99.99
2018-03-11T03:09:03.039Z,99.99
2018-03-11T03:10:02.940Z,99.99
2018-03-11T03:11:55.842Z,99.99
2018-03-11T03:12:55.796Z,99.99
2018-03-11T03:14:49.241Z,99.99
2018-03-11T03:15:49.169Z,99.99
2018-03-11T03:17:42.071Z,99.99
2018-03-11T03:18:42.048Z,99.99
2018-03-11T03:20:34.944Z,99.99
2018-03-11T03:21:34.898Z,99.99
2018-03-11T03:23:27.849Z,99.99
2018-03-11T03:24:27.799Z,99.99
2018-03-11T03:26:21.244Z,99.99
2018-03-11T03:27:21.122Z,99.99
2018-03-11T03:29:14.089Z,99.99
2018-03-11T03:30:13.981Z,99.99
2018-03-11T03:32:07.426Z,99.99
2018-03-11T03:33:07.339Z,99.99
2018-03-11T03:35:00.240Z,99.99
2018-03-11T03:36:00.190Z,99.99
2018-03-11T03:37:53.155Z,99.99
2018-03-11T03:38:53.067Z,99.99
2018-03-11T03:40:46.544Z,99.99
2018-03-11T03:41:46.404Z,99.99
2018-03-11T03:43:39.485Z,99.99
2018-03-11T03:44:39.285Z,99.99
2018-03-11T03:46:32.824Z,99.99
2018-03-11T03:47:32.638Z,99.99
2018-03-11T03:49:25.519Z,99.99
2018-03-11T03:50:25.517Z,99.99
2018-03-11T03:52:18.896Z,99.99
2018-03-11T03:53:18.855Z,99.99
2018-03-11T03:55:12.800Z,99.99
2018-03-11T03:56:12.203Z,99.99
2018-03-11T03:58:05.188Z,99.99
2018-03-11T03:59:05.076Z,99.99
2018-03-11T04:00:58.446Z,99.99
2018-03-11T04:01:58.423Z,99.99
2018-03-11T04:03:51.883Z,99.99
2018-03-11T04:04:51.785Z,99.99
2018-03-11T04:06:44.728Z,99.99
2018-03-11T04:07:44.669Z,99.99
2018-03-11T04:09:37.656Z,99.99
2018-03-11T04:10:37.547Z,99.99
2018-03-11T04:12:30.917Z,99.99
2018-03-11T04:13:31.439Z,99.99
2018-03-11T04:15:23.873Z,99.99
2018-03-11T04:16:23.734Z,99.99
2018-03-11T04:18:17.105Z,99.99
2018-03-11T04:19:17.078Z,99.99
2018-03-11T04:21:09.984Z,99.99
2018-03-11T04:22:09.963Z,99.99
2018-03-11T04:24:02.929Z,99.99
2018-03-11T04:25:02.814Z,99.99
2018-03-11T04:26:57.423Z,99.99
2018-03-11T04:27:56.174Z,99.99
2018-03-11T04:29:49.057Z,99.99
2018-03-11T04:30:49.042Z,99.99
2018-03-11T04:32:41.996Z,99.99
2018-03-11T04:33:41.903Z,99.99
2018-03-11T04:35:35.289Z,99.99
2018-03-11T04:36:35.250Z,99.99
2018-03-11T04:38:28.155Z,99.99
2018-03-11T04:39:28.112Z,99.99
2018-03-11T04:41:21.502Z,99.99
2018-03-11T04:42:21.468Z,99.99
2018-03-11T04:44:14.357Z,99.99
2018-03-11T04:45:14.326Z,99.99
2018-03-11T04:47:07.267Z,99.99
2018-03-11T04:48:07.192Z,99.99
2018-03-11T04:50:00.088Z,99.99
2018-03-11T04:51:00.056Z,99.99
2018-03-11T04:52:53.441Z,99.99
2018-03-11T04:53:53.416Z,99.99
2018-03-11T04:55:46.307Z,99.99
2018-03-11T04:56:46.287Z,99.99
2018-03-11T04:58:39.183Z,99.99
2018-03-11T04:59:39.163Z,99.99
2018-03-11T05:01:32.563Z,99.99
2018-03-11T05:02:32.504Z,99.99
2018-03-11T05:04:25.394Z,99.99
2018-03-11T05:05:25.369Z,99.99
2018-03-11T05:07:18.311Z,99.99
2018-03-11T05:08:18.231Z,99.99
2018-03-11T05:10:11.611Z,99.99
2018-03-11T05:11:11.613Z,99.99
2018-03-11T05:13:05.043Z,99.99
2018-03-11T05:14:04.945Z,99.99
2018-03-11T05:15:58.332Z,99.99
2018-03-11T05:16:58.302Z,99.99
2018-03-11T05:18:51.190Z,99.99
2018-03-11T05:19:51.166Z,99.99
2018-03-11T05:21:44.120Z,99.99
2018-03-11T05:22:44.025Z,99.99
2018-03-11T05:24:37.419Z,99.99
2018-03-11T05:25:37.396Z,99.99
2018-03-11T05:27:30.278Z,99.99
2018-03-11T05:28:30.287Z,99.99
2018-03-11T05:30:23.147Z,99.99
2018-03-11T05:31:23.116Z,99.99
2018-03-11T05:33:16.494Z,99.99
2018-03-11T05:34:16.468Z,99.99
2018-03-11T05:36:09.361Z,99.99
2018-03-11T05:37:09.335Z,99.99
2018-03-11T05:39:02.749Z,99.99
2018-03-11T05:40:02.709Z,99.99
2018-03-11T05:41:55.586Z,99.99
2018-03-11T05:42:55.557Z,99.99
2018-03-11T05:44:48.450Z,99.99
2018-03-11T05:45:48.423Z,99.99
2018-03-11T05:47:41.309Z,99.99
2018-03-11T05:48:41.292Z,99.99
2018-03-11T05:50:34.691Z,99.99
2018-03-11T05:51:34.646Z,99.99
2018-03-11T05:53:27.599Z,99.99
2018-03-11T05:54:27.520Z,99.99
2018-03-11T05:56:20.457Z,99.99
2018-03-11T05:57:20.425Z,99.99
2018-03-11T05:59:13.306Z,99.99
2018-03-11T06:00:13.282Z,99.99
2018-03-11T06:02:06.179Z,99.99
2018-03-11T06:03:06.160Z,99.99
2018-03-11T06:04:59.039Z,99.99
2018-03-11T06:05:59.010Z,99.99
2018-03-11T06:07:51.931Z,99.99
2018-03-11T06:08:51.874Z,99.99
2018-03-11T06:10:44.779Z,99.99
2018-03-11T06:11:44.736Z,99.99
2018-03-11T06:13:37.630Z,99.99
2018-03-11T06:14:37.610Z,99.99
2018-03-11T06:16:30.500Z,99.99
2018-03-11T06:17:30.473Z,99.99
2018-03-11T06:19:23.365Z,99.99
2018-03-11T06:20:23.340Z,99.99
2018-03-11T06:22:16.738Z,99.99
2018-03-11T06:23:16.695Z,99.99
2018-03-11T06:25:09.592Z,99.99
2018-03-11T06:26:09.569Z,99.99
2018-03-11T06:28:02.460Z,99.99
2018-03-11T06:29:02.437Z,99.99
2018-03-11T06:30:55.328Z,99.99
2018-03-11T06:31:55.296Z,99.99
2018-03-11T06:33:48.680Z,99.99
2018-03-11T06:34:48.651Z,99.99
2018-03-11T06:36:42.049Z,99.99
2018-03-11T06:37:42.023Z,99.99
2018-03-11T06:39:34.915Z,99.99
2018-03-11T06:40:34.892Z,99.99
2018-03-11T06:42:28.270Z,99.99
2018-03-11T06:43:28.261Z,99.99
2018-03-11T06:45:21.710Z,99.99
2018-03-11T06:46:21.113Z,99.99
2018-03-11T06:48:14.085Z,99.99
2018-03-11T06:49:13.987Z,99.99
2018-03-11T06:51:06.883Z,99.99
2018-03-11T06:52:06.848Z,99.99
2018-03-11T06:53:59.731Z,99.99
2018-03-11T06:54:59.706Z,99.99
2018-03-11T06:56:52.616Z,99.99
2018-03-11T06:57:52.588Z,99.99
2018-03-11T06:59:45.470Z,99.99
2018-03-11T07:00:45.446Z,99.99
2018-03-11T07:02:39.483Z,99.99
2018-03-11T07:03:39.318Z,99.99
2018-03-11T07:05:32.431Z,99.99
2018-03-11T07:06:32.185Z,99.99
2018-03-11T07:08:25.799Z,99.99
2018-03-11T07:09:25.604Z,99.99
2018-03-11T07:11:18.951Z,99.99
2018-03-11T07:12:18.898Z,99.99
2018-03-11T07:14:14.003Z,99.99
2018-03-11T07:15:12.836Z,99.99
2018-03-11T07:17:05.411Z,99.99
2018-03-11T07:18:05.150Z,99.99
2018-03-11T07:19:58.537Z,99.99
2018-03-11T07:20:58.509Z,99.99
2018-03-11T07:22:52.083Z,99.99
2018-03-11T07:23:51.861Z,99.99
2018-03-11T07:25:45.318Z,99.99
2018-03-11T07:26:45.214Z,99.99
2018-03-11T07:28:38.864Z,99.99
2018-03-11T07:29:38.607Z,99.99
2018-03-11T07:31:32.299Z,99.99
2018-03-11T07:32:31.966Z,99.99
2018-03-11T07:34:25.689Z,99.99
2018-03-11T07:35:25.322Z,99.99
2018-03-11T07:37:19.739Z,99.99
2018-03-11T07:38:18.680Z,99.99
2018-03-11T07:40:13.137Z,99.99
2018-03-11T07:41:12.610Z,99.99
2018-03-11T07:43:04.992Z,99.99
2018-03-11T07:44:04.991Z,99.99
2018-03-11T07:45:58.597Z,99.71
2018-03-11T07:46:58.317Z,99.99
2018-03-11T07:48:51.915Z,99.99
2018-03-11T07:49:51.711Z,99.71
2018-03-11T07:51:44.613Z,99.42
2018-03-11T07:52:44.577Z,99.99
2018-03-11T07:54:38.290Z,99.42
2018-03-11T07:55:37.929Z,98.94
2018-03-11T07:57:30.931Z,98.66
2018-03-11T07:58:30.897Z,98.56
2018-03-11T08:00:23.851Z,98.66
2018-03-11T08:01:23.745Z,98.47
2018-03-11T08:03:17.168Z,98.18
2018-03-11T08:04:17.122Z,98.27
2018-03-11T08:06:10.707Z,98.08
2018-03-11T08:07:10.557Z,98.18
2018-03-11T08:09:04.479Z,98.08
2018-03-11T08:10:03.885Z,98.47
2018-03-11T08:11:57.513Z,97.37
2018-03-11T08:12:57.233Z,97.71
2018-03-11T08:14:50.641Z,96.89
2018-03-11T08:15:51.222Z,96.98
2018-03-11T08:17:43.562Z,97.18
2018-03-11T08:18:43.558Z,96.89
2018-03-11T08:20:37.148Z,96.89
2018-03-11T08:21:36.863Z,96.51
2018-03-11T08:23:31.250Z,96.89
2018-03-11T08:24:31.232Z,96.13
2018-03-11T08:26:25.024Z,96.22
2018-03-11T08:27:24.119Z,95.56
2018-03-11T08:29:17.779Z,95.56
2018-03-11T08:30:17.515Z,95.46
2018-03-11T08:32:11.004Z,95.46
2018-03-11T08:33:13.399Z,96.03
2018-03-11T08:35:05.499Z,95.56
2018-03-11T08:36:05.129Z,95.36
2018-03-11T08:37:58.660Z,95.36
2018-03-11T08:38:58.254Z,95.27
2018-03-11T08:40:52.068Z,96.32
2018-03-11T08:41:51.652Z,95.84
2018-03-11T08:43:46.124Z,95.75
2018-03-11T08:44:45.899Z,95.36
2018-03-11T08:46:39.868Z,94.98
2018-03-11T08:47:39.804Z,95.03
2018-03-11T08:49:32.757Z,94.27
2018-03-11T08:50:32.692Z,93.98
2018-03-11T08:52:26.060Z,93.98
2018-03-11T08:53:26.045Z,93.79
2018-03-11T08:55:19.106Z,93.50
2018-03-11T08:56:18.931Z,93.88
2018-03-11T08:58:12.397Z,93.31
2018-03-11T08:59:11.822Z,93.21
2018-03-11T09:01:05.195Z,92.64
2018-03-11T09:02:05.150Z,92.59
2018-03-11T09:03:58.566Z,92.50
2018-03-11T09:04:58.523Z,92.30
2018-03-11T09:06:51.997Z,92.11
2018-03-11T09:07:51.899Z,91.54
2018-03-11T09:09:45.079Z,91.06
2018-03-11T09:10:44.857Z,90.39
2018-03-11T09:12:38.141Z,89.96
2018-03-11T09:13:37.850Z,90.34
2018-03-11T09:15:31.157Z,89.58
2018-03-11T09:16:30.808Z,89.58
2018-03-11T09:18:23.945Z,89.01
2018-03-11T09:19:23.795Z,89.39
2018-03-11T09:21:17.113Z,89.20
2018-03-11T09:22:17.089Z,88.09
2018-03-11T09:24:12.795Z,88.48
2018-03-11T09:25:10.569Z,88.29
2018-03-11T09:27:04.150Z,88.19
2018-03-11T09:28:04.092Z,87.43
2018-03-11T09:29:57.531Z,88.00
2018-03-11T09:30:57.085Z,87.52
2018-03-11T09:32:51.086Z,86.94
2018-03-11T09:33:50.885Z,87.23
2018-03-11T09:35:44.413Z,86.85
2018-03-11T09:37:58.730Z,86.28
2018-03-11T09:38:58.706Z,85.84
2018-03-11T09:40:53.129Z,85.55
2018-03-11T09:41:53.025Z,86.04
2018-03-11T09:43:46.565Z,86.32
2018-03-11T09:44:46.100Z,85.55
2018-03-11T09:46:39.769Z,85.94
2018-03-11T09:47:39.505Z,85.84
2018-03-11T09:49:32.928Z,85.55
2018-03-11T09:50:32.412Z,84.98
2018-03-11T09:52:25.841Z,85.17
2018-03-11T09:53:25.612Z,84.88
2018-03-11T09:55:19.956Z,84.64
2018-03-11T09:56:19.487Z,84.64
2018-03-11T09:58:13.078Z,83.97
2018-03-11T09:59:13.790Z,84.16
2018-03-11T10:01:09.936Z,83.78
2018-03-11T10:02:08.908Z,84.06
2018-03-11T10:04:02.259Z,83.72
2018-03-11T10:05:02.221Z,83.44
2018-03-11T10:06:55.675Z,82.09
2018-03-11T10:07:56.751Z,82.48
2018-03-11T10:09:50.133Z,81.62
2018-03-11T10:10:48.868Z,81.04
2018-03-11T10:12:42.540Z,80.60
2018-03-11T10:13:42.563Z,80.03
2018-03-11T10:15:38.396Z,79.45
2018-03-11T10:16:37.049Z,78.97
2018-03-11T10:18:29.849Z,79.26
2018-03-11T10:19:30.068Z,78.30
2018-03-11T10:21:23.318Z,77.09
2018-03-11T10:22:22.963Z,76.71
2018-03-11T10:24:16.817Z,77.09
2018-03-11T10:25:16.320Z,77.19
2018-03-11T10:27:10.087Z,77.38
2018-03-11T10:28:09.684Z,77.29
2018-03-11T10:30:04.680Z,77.44
2018-03-11T10:31:04.591Z,77.53
2018-03-11T10:32:57.876Z,77.44
2018-03-11T10:33:57.579Z,77.25
2018-03-11T10:35:52.890Z,77.25
2018-03-11T10:36:51.302Z,77.44
2018-03-11T10:38:44.828Z,76.39
2018-03-11T10:39:44.773Z,77.73
2018-03-11T10:41:41.419Z,78.20
2018-03-11T10:42:40.361Z,77.34
2018-03-11T10:44:32.747Z,78.69
2018-03-11T10:45:30.834Z,78.02
2018-03-11T10:47:25.632Z,79.13
2018-03-11T10:48:24.213Z,77.88
2018-03-11T10:50:24.234Z,78.07
2018-03-11T10:52:31.733Z,77.88
2018-03-11T10:54:45.734Z,78.36
2018-03-11T10:55:44.940Z,77.97
2018-03-11T10:58:30.960Z,78.74
2018-03-11T10:59:30.229Z,78.74
2018-03-11T11:01:23.809Z,77.40
2018-03-11T11:02:23.505Z,77.40
2018-03-11T11:04:17.248Z,78.55
2018-03-11T11:05:16.962Z,79.41
2018-03-11T11:07:13.603Z,78.45
2018-03-11T11:08:10.258Z,78.27
2018-03-11T11:10:07.346Z,78.74
2018-03-11T11:11:05.995Z,78.64
2018-03-11T11:13:03.041Z,78.45
2018-03-11T11:13:57.743Z,78.64
2018-03-11T11:15:52.489Z,78.64
2018-03-11T11:16:50.725Z,78.74
2018-03-11T11:18:47.404Z,79.03
2018-03-11T11:19:45.071Z,79.03
2018-03-11T11:21:37.586Z,78.55
2018-03-11T11:22:38.186Z,78.93
2018-03-11T11:24:31.064Z,78.74
2018-03-11T11:25:31.290Z,78.36
2018-03-11T11:27:24.972Z,78.55
2018-03-11T11:28:23.684Z,77.88
2018-03-11T11:30:17.340Z,78.45
2018-03-11T11:31:17.130Z,78.45
2018-03-11T11:33:15.039Z,77.88
2018-03-11T11:35:25.383Z,77.97
2018-03-11T11:36:26.542Z,77.78
2018-03-11T11:38:17.757Z,77.88
2018-03-11T11:39:17.762Z,77.97
2018-03-11T11:41:11.123Z,77.88
2018-03-11T11:42:10.860Z,78.17
2018-03-11T11:44:05.648Z,77.50
2018-03-11T11:45:05.081Z,77.59
2018-03-11T11:46:58.409Z,77.69
2018-03-11T11:47:57.978Z,77.59
2018-03-11T11:49:52.116Z,77.88
2018-03-11T11:50:51.774Z,77.31
2018-03-11T11:52:44.383Z,77.50
2018-03-11T11:53:45.379Z,77.59
2018-03-11T11:55:37.346Z,77.78
2018-03-11T11:56:37.121Z,78.07
2018-03-11T11:58:30.837Z,77.88
2018-03-11T11:59:30.537Z,77.97
2018-03-11T12:01:23.774Z,77.78
2018-03-11T12:04:22.496Z,77.40
2018-03-11T12:06:33.633Z,76.73
2018-03-11T12:07:31.418Z,76.54
2018-03-11T12:09:26.922Z,76.73
2018-03-11T12:10:24.727Z,76.73
2018-03-11T12:12:18.002Z,76.44
2018-03-11T12:13:18.997Z,76.06
2018-03-11T12:15:14.567Z,76.25
2018-03-11T12:17:24.889Z,75.68
2018-03-11T12:19:41.233Z,75.87
2018-03-11T12:20:37.376Z,75.58
2018-03-11T12:22:30.100Z,75.87
2018-03-11T12:23:29.727Z,76.54
2018-03-11T12:25:23.141Z,75.58
2018-03-11T12:26:23.137Z,75.58
2018-03-11T12:28:16.859Z,75.52
2018-03-11T12:29:16.507Z,75.81
2018-03-11T12:31:10.460Z,75.52
2018-03-11T12:32:09.859Z,75.52
2018-03-11T12:34:03.410Z,75.43
2018-03-11T12:35:03.272Z,75.33
2018-03-11T12:36:57.048Z,75.71
2018-03-11T12:37:59.202Z,74.85
2018-03-11T12:39:49.913Z,74.95
2018-03-11T12:40:49.714Z,74.95
2018-03-11T12:42:44.028Z,74.69
2018-03-11T12:43:43.328Z,74.66
2018-03-11T12:45:37.909Z,74.69
2018-03-11T12:46:36.382Z,74.66
2018-03-11T12:48:30.659Z,74.27
2018-03-11T12:49:29.271Z,74.08
2018-03-11T12:51:22.918Z,74.47
2018-03-11T12:52:22.573Z,74.18
2018-03-11T12:54:16.171Z,74.47
2018-03-11T12:55:16.009Z,74.60
2018-03-11T12:57:08.832Z,74.69
2018-03-11T12:58:09.386Z,74.69
2018-03-11T13:00:03.832Z,74.31
2018-03-11T13:02:18.671Z,74.51
2018-03-11T13:03:17.191Z,73.80
2018-03-11T13:05:11.016Z,73.26
2018-03-11T13:06:10.544Z,72.88
2018-03-11T13:08:05.510Z,73.03
2018-03-11T13:09:04.767Z,73.55
2018-03-11T13:10:57.144Z,72.45
2018-03-11T13:11:58.602Z,72.78
2018-03-11T13:13:52.067Z,73.74
2018-03-11T13:14:50.008Z,73.65
2018-03-11T13:16:43.383Z,73.45
2018-03-11T13:17:43.022Z,73.93
2018-03-11T13:19:37.389Z,73.74
2018-03-11T13:21:54.716Z,74.31
2018-03-11T13:22:50.795Z,74.12
2018-03-11T13:24:44.707Z,73.65
2018-03-11T13:25:44.697Z,73.55
2018-03-11T13:27:38.428Z,74.51
2018-03-11T13:28:37.124Z,73.55
2018-03-11T13:30:30.981Z,73.26
2018-03-11T13:31:30.501Z,73.35
2018-03-11T13:33:23.838Z,73.74
2018-03-11T13:34:23.838Z,72.72
2018-03-11T13:36:17.069Z,72.81
2018-03-11T13:37:17.531Z,72.53
2018-03-11T13:39:10.415Z,72.72
2018-03-11T13:40:11.413Z,72.63
2018-03-11T13:42:04.854Z,72.72
2018-03-11T13:43:02.899Z,71.76
2018-03-11T13:45:23.934Z,71.57
2018-03-11T13:46:23.837Z,71.66
2018-03-11T13:48:23.274Z,71.37
2018-03-11T13:49:21.859Z,70.61
2018-03-11T13:51:15.460Z,70.07
2018-03-11T13:52:15.360Z,70.45
2018-03-11T13:54:08.458Z,71.12
2018-03-11T13:55:08.112Z,70.74
2018-03-11T13:57:02.653Z,70.93
2018-03-11T13:58:01.455Z,70.64
2018-03-11T13:59:55.250Z,71.31
2018-03-11T14:00:55.174Z,71.03
2018-03-11T14:02:48.633Z,70.84
2018-03-11T14:03:48.600Z,70.93
2018-03-11T14:05:53.390Z,70.45
2018-03-11T14:06:55.104Z,70.84
2018-03-11T14:08:46.307Z,71.12
2018-03-11T14:09:46.650Z,70.64
2018-03-11T14:11:40.849Z,70.70
2018-03-11T14:12:41.042Z,70.70
2018-03-11T14:14:34.087Z,70.32
2018-03-11T14:15:35.930Z,70.80
2018-03-11T14:17:31.342Z,70.70
2018-03-11T14:18:28.123Z,71.09
2018-03-11T14:20:23.436Z,71.51
2018-03-11T14:21:22.828Z,71.03
2018-03-11T14:23:16.306Z,71.70
2018-03-11T14:24:16.154Z,71.03
2018-03-11T14:26:12.364Z,71.03
2018-03-11T14:27:11.725Z,71.03
2018-03-11T14:29:06.061Z,70.64
2018-03-11T14:30:05.490Z,70.93
2018-03-11T14:31:58.589Z,70.74
2018-03-11T14:32:58.993Z,71.03
2018-03-11T14:34:51.681Z,70.36
2018-03-11T14:35:51.635Z,70.84
2018-03-11T14:37:46.260Z,71.22
2018-03-11T14:38:45.039Z,70.99
2018-03-11T14:40:38.159Z,71.37
2018-03-11T14:41:37.927Z,71.09
2018-03-11T14:43:30.846Z,70.99
2018-03-11T14:44:30.782Z,70.80
2018-03-11T14:46:24.466Z,70.90
2018-03-11T14:47:24.176Z,70.32
2018-03-11T14:49:17.393Z,70.80
2018-03-11T14:50:17.049Z,70.99
2018-03-11T14:52:10.241Z,70.99
2018-03-11T14:53:10.013Z,70.61
2018-03-11T14:55:02.940Z,70.84
2018-03-11T14:56:02.936Z,70.80
2018-03-11T14:58:00.915Z,71.19
2018-03-11T14:59:03.407Z,71.09
2018-03-11T15:00:56.729Z,71.19
2018-03-11T15:01:55.547Z,71.28
2018-03-11T15:03:59.274Z,71.37
2018-03-11T15:04:58.868Z,71.19
2018-03-11T15:06:53.217Z,71.19
2018-03-11T15:07:52.829Z,71.57
2018-03-11T15:09:50.648Z,71.66
2018-03-11T15:10:46.268Z,71.76
2018-03-11T15:12:41.898Z,72.14
2018-03-11T15:13:41.186Z,72.24
2018-03-11T15:15:32.596Z,72.53
2018-03-11T15:16:32.539Z,72.33
2018-03-11T15:18:25.947Z,71.76
2018-03-11T15:19:25.827Z,71.95
2018-03-11T15:21:19.327Z,72.43
2018-03-11T15:22:18.867Z,72.53
2018-03-11T15:24:12.611Z,72.72
2018-03-11T15:25:12.557Z,72.53
2018-03-11T15:27:05.548Z,72.81
2018-03-11T15:28:05.565Z,72.72
2018-03-11T15:29:58.752Z,72.72
2018-03-11T15:30:58.456Z,72.91
2018-03-11T15:32:54.523Z,72.91
2018-03-11T15:33:52.438Z,72.81
2018-03-11T15:35:48.246Z,73.00
2018-03-11T15:36:48.054Z,73.58
2018-03-11T15:38:46.364Z,72.72
2018-03-11T15:39:43.487Z,73.16
2018-03-11T15:41:35.440Z,72.68
2018-03-11T15:42:35.437Z,72.88
2018-03-11T15:44:29.909Z,72.68
2018-03-11T15:45:32.925Z,72.78
2018-03-11T15:47:22.889Z,73.35
2018-03-11T15:48:24.947Z,74.12
2018-03-11T15:50:19.371Z,73.65
2018-03-11T15:51:15.982Z,74.02
2018-03-11T15:53:09.446Z,73.83
2018-03-11T15:54:09.105Z,74.51
2018-03-11T15:56:03.879Z,74.22
2018-03-11T15:57:03.793Z,74.22
2018-03-11T15:58:59.088Z,74.51
2018-03-11T15:59:59.589Z,74.41
2018-03-11T16:01:52.783Z,74.31
2018-03-11T16:02:50.552Z,74.89
2018-03-11T16:04:44.183Z,74.95
2018-03-11T16:05:43.690Z,75.23
2018-03-11T16:07:37.459Z,75.23
2018-03-11T16:08:37.412Z,75.14
2018-03-11T16:10:33.576Z,75.33
2018-03-11T16:11:30.863Z,75.33
2018-03-11T16:14:15.212Z,75.71
2018-03-11T16:15:14.816Z,75.62
2018-03-11T16:17:11.031Z,75.71
2018-03-11T16:18:08.554Z,75.62
2018-03-11T16:20:04.391Z,75.62
2018-03-11T16:21:01.479Z,75.62
2018-03-11T16:22:55.814Z,75.90
2018-03-11T16:23:55.802Z,75.81
2018-03-11T16:25:51.675Z,76.06
2018-03-11T16:26:49.726Z,75.71
2018-03-11T16:28:45.659Z,76.44
2018-03-11T16:29:42.781Z,76.73
2018-03-11T16:32:27.299Z,76.54
2018-03-11T16:33:30.188Z,76.82
2018-03-11T16:35:20.950Z,77.02
2018-03-11T16:36:21.139Z,76.92
2018-03-11T16:38:14.434Z,77.02
2018-03-11T16:39:14.027Z,77.02
2018-03-11T16:41:07.773Z,77.69
2018-03-11T16:42:07.755Z,77.69
2018-03-11T16:44:00.285Z,78.07
2018-03-11T16:45:00.228Z,78.03
2018-03-11T16:46:53.580Z,78.03
2018-03-11T16:47:53.205Z,78.42
2018-03-11T16:49:47.501Z,78.03
2018-03-11T16:50:46.916Z,78.22
2018-03-11T16:52:40.928Z,78.51
2018-03-11T16:53:40.578Z,78.51
2018-03-11T16:55:34.132Z,78.38
2018-03-11T16:56:33.649Z,78.38
2018-03-11T16:58:27.376Z,78.76
2018-03-11T16:59:27.429Z,79.24
2018-03-11T17:01:22.016Z,79.43
2018-03-11T17:02:20.375Z,79.43
2018-03-11T17:04:14.201Z,79.24
2018-03-11T17:05:13.770Z,79.81
2018-03-11T17:07:08.579Z,80.06
2018-03-11T17:08:07.076Z,80.35
2018-03-11T17:10:00.041Z,80.35
2018-03-11T17:10:59.997Z,81.02
2018-03-11T17:12:54.446Z,81.68
2018-03-11T17:13:54.685Z,81.78
2018-03-11T17:15:48.163Z,82.35
2018-03-11T17:16:47.743Z,82.35
2018-03-11T17:18:40.748Z,82.70
2018-03-11T17:19:40.789Z,82.79
2018-03-11T17:21:34.422Z,83.46
2018-03-11T17:22:33.983Z,83.94
2018-03-11T17:24:27.597Z,84.23
2018-03-11T17:25:27.386Z,84.61
2018-03-11T17:27:20.801Z,85.18
2018-03-11T17:28:20.730Z,85.52
2018-03-11T17:30:15.189Z,86.10
2018-03-11T17:31:15.104Z,85.81
2018-03-11T17:33:08.592Z,86.86
2018-03-11T17:34:08.470Z,86.57
2018-03-11T17:36:03.400Z,87.15
2018-03-11T17:37:01.846Z,87.24
2018-03-11T17:38:55.630Z,87.34
2018-03-11T17:39:55.588Z,87.62
2018-03-11T17:41:49.025Z,87.58
2018-03-11T17:42:48.598Z,87.96
2018-03-11T17:44:42.451Z,88.15
2018-03-11T17:45:42.421Z,88.25
2018-03-11T17:47:35.888Z,87.96
2018-03-11T17:48:35.839Z,87.96
2018-03-11T17:50:29.826Z,88.44
2018-03-11T17:51:29.374Z,88.63
2018-03-11T17:53:23.122Z,88.06
2018-03-11T17:54:22.729Z,88.25
2018-03-11T17:56:16.548Z,88.82
2018-03-11T17:57:16.090Z,88.54
2018-03-11T17:59:13.081Z,89.30
2018-03-11T18:00:12.588Z,89.01
2018-03-11T18:02:04.791Z,89.59
2018-03-11T18:03:05.123Z,89.54
2018-03-11T18:05:02.733Z,89.16
2018-03-11T18:05:57.752Z,89.73
2018-03-11T18:09:25.316Z,90.02
2018-03-11T18:10:26.220Z,89.73
2018-03-11T18:12:18.967Z,89.83
2018-03-11T18:13:18.198Z,89.64
2018-03-11T18:15:13.883Z,89.25
2018-03-11T18:16:12.873Z,89.73
2018-03-11T18:18:07.367Z,89.64
2018-03-11T18:19:07.461Z,89.25
2018-03-11T18:21:01.679Z,89.92
2018-03-11T18:22:00.668Z,89.64
2018-03-11T18:23:54.625Z,89.64
2018-03-11T18:24:54.099Z,89.16
2018-03-11T18:26:47.498Z,89.92
2018-03-11T18:27:47.474Z,89.54
2018-03-11T18:29:40.785Z,90.31
2018-03-11T18:30:42.378Z,90.11
2018-03-11T18:32:36.700Z,90.97
2018-03-11T18:33:33.745Z,90.31
2018-03-11T18:35:27.799Z,90.50
2018-03-11T18:36:26.419Z,90.55
2018-03-11T18:38:20.614Z,90.55
2018-03-11T18:39:19.878Z,90.73
2018-03-11T18:41:13.648Z,91.41
2018-03-11T18:42:13.323Z,91.69
2018-03-11T18:44:07.507Z,92.17
2018-03-11T18:45:06.536Z,91.69
2018-03-11T18:47:00.626Z,92.83
2018-03-11T18:47:59.951Z,92.74
2018-03-11T18:49:53.736Z,93.12